sensor_id;sensor_type;location;lat;lon;timestamp;P1;durP1;ratioP1;P2;durP2;ratioP2
62058;SDS011;48017;51.064;7.014;2022-12-07T00:01:35;19.90;;;10.13;;
62058;SDS011;48017;51.064;7.014;2022-12-07T00:04:01;19.05;;;10.68;;
62058;SDS011;48017;51.064;7.014;2022-12-07T00:06:33;16.70;;;10.10;;
62058;SDS011;48017;51.064;7.014;2022-12-07T00:08:58;14.10;;;10.15;;
62058;SDS011;48017;51.064;7.014;2022-12-07T00:11:24;19.90;;;10.88;;
62058;SDS011;48017;51.064;7.014;2022-12-07T00:13:53;17.38;;;10.07;;
62058;SDS011;48017;51.064;7.014;2022-12-07T00:16:20;18.95;;;11.00;;
62058;SDS011;48017;51.064;7.014;2022-12-07T00:18:45;15.23;;;10.38;;
62058;SDS011;48017;51.064;7.014;2022-12-07T00:21:12;19.17;;;11.07;;
62058;SDS011;48017;51.064;7.014;2022-12-07T00:23:37;17.67;;;10.68;;
62058;SDS011;48017;51.064;7.014;2022-12-07T00:26:04;17.67;;;10.65;;
62058;SDS011;48017;51.064;7.014;2022-12-07T00:28:29;18.05;;;11.00;;
62058;SDS011;48017;51.064;7.014;2022-12-07T00:30:59;18.20;;;10.48;;
62058;SDS011;48017;51.064;7.014;2022-12-07T00:33:24;20.00;;;9.70;;
62058;SDS011;48017;51.064;7.014;2022-12-07T00:35:54;20.95;;;10.02;;
62058;SDS011;48017;51.064;7.014;2022-12-07T00:38:20;14.40;;;9.85;;
62058;SDS011;48017;51.064;7.014;2022-12-07T00:40:53;18.35;;;11.05;;
62058;SDS011;48017;51.064;7.014;2022-12-07T00:43:18;21.23;;;11.18;;
62058;SDS011;48017;51.064;7.014;2022-12-07T00:45:43;13.20;;;9.20;;
62058;SDS011;48017;51.064;7.014;2022-12-07T00:48:08;18.30;;;10.13;;
62058;SDS011;48017;51.064;7.014;2022-12-07T00:50:34;15.93;;;10.13;;
62058;SDS011;48017;51.064;7.014;2022-12-07T00:52:59;15.90;;;10.50;;
62058;SDS011;48017;51.064;7.014;2022-12-07T00:55:24;17.17;;;9.85;;
62058;SDS011;48017;51.064;7.014;2022-12-07T00:57:49;12.83;;;8.67;;
62058;SDS011;48017;51.064;7.014;2022-12-07T01:00:14;16.17;;;10.10;;
62058;SDS011;48017;51.064;7.014;2022-12-07T01:02:40;14.88;;;10.13;;
62058;SDS011;48017;51.064;7.014;2022-12-07T01:05:05;17.45;;;10.30;;
62058;SDS011;48017;51.064;7.014;2022-12-07T01:07:31;16.63;;;9.45;;
62058;SDS011;48017;51.064;7.014;2022-12-07T01:09:56;17.83;;;10.20;;
62058;SDS011;48017;51.064;7.014;2022-12-07T01:12:21;15.52;;;8.63;;
62058;SDS011;48017;51.064;7.014;2022-12-07T01:14:46;13.60;;;8.90;;
62058;SDS011;48017;51.064;7.014;2022-12-07T01:17:12;16.42;;;10.15;;
62058;SDS011;48017;51.064;7.014;2022-12-07T01:19:37;14.50;;;9.75;;
62058;SDS011;48017;51.064;7.014;2022-12-07T01:22:02;14.05;;;9.90;;
62058;SDS011;48017;51.064;7.014;2022-12-07T01:24:27;16.35;;;10.68;;
62058;SDS011;48017;51.064;7.014;2022-12-07T01:26:53;16.42;;;10.82;;
62058;SDS011;48017;51.064;7.014;2022-12-07T01:29:18;15.38;;;10.45;;
62058;SDS011;48017;51.064;7.014;2022-12-07T01:31:43;17.30;;;10.87;;
62058;SDS011;48017;51.064;7.014;2022-12-07T01:34:08;22.08;;;11.13;;
62058;SDS011;48017;51.064;7.014;2022-12-07T01:36:34;18.95;;;11.85;;
62058;SDS011;48017;51.064;7.014;2022-12-07T01:39:01;18.60;;;11.27;;
62058;SDS011;48017;51.064;7.014;2022-12-07T01:41:28;19.65;;;11.93;;
62058;SDS011;48017;51.064;7.014;2022-12-07T01:46:31;19.67;;;10.48;;
62058;SDS011;48017;51.064;7.014;2022-12-07T01:48:56;17.77;;;10.60;;
62058;SDS011;48017;51.064;7.014;2022-12-07T01:51:21;15.48;;;10.20;;
62058;SDS011;48017;51.064;7.014;2022-12-07T01:53:46;21.25;;;12.45;;
62058;SDS011;48017;51.064;7.014;2022-12-07T01:56:14;17.23;;;11.68;;
62058;SDS011;48017;51.064;7.014;2022-12-07T01:58:42;19.75;;;11.48;;
62058;SDS011;48017;51.064;7.014;2022-12-07T02:01:07;19.65;;;12.77;;
62058;SDS011;48017;51.064;7.014;2022-12-07T02:03:37;20.55;;;12.35;;
62058;SDS011;48017;51.064;7.014;2022-12-07T02:06:03;18.80;;;12.00;;
62058;SDS011;48017;51.064;7.014;2022-12-07T02:08:29;22.55;;;12.98;;
62058;SDS011;48017;51.064;7.014;2022-12-07T02:10:54;19.13;;;12.23;;
62058;SDS011;48017;51.064;7.014;2022-12-07T02:13:24;16.63;;;10.90;;
62058;SDS011;48017;51.064;7.014;2022-12-07T02:20:55;21.48;;;11.77;;
62058;SDS011;48017;51.064;7.014;2022-12-07T02:23:36;20.67;;;12.10;;
62058;SDS011;48017;51.064;7.014;2022-12-07T02:31:31;18.83;;;11.27;;
62058;SDS011;48017;51.064;7.014;2022-12-07T02:36:43;18.55;;;12.18;;
62058;SDS011;48017;51.064;7.014;2022-12-07T02:39:17;18.85;;;11.85;;
62058;SDS011;48017;51.064;7.014;2022-12-07T02:41:44;19.17;;;12.52;;
62058;SDS011;48017;51.064;7.014;2022-12-07T02:44:12;19.17;;;11.98;;
62058;SDS011;48017;51.064;7.014;2022-12-07T02:46:40;22.43;;;13.10;;
62058;SDS011;48017;51.064;7.014;2022-12-07T02:49:07;20.23;;;11.63;;
62058;SDS011;48017;51.064;7.014;2022-12-07T02:51:33;18.52;;;12.45;;
62058;SDS011;48017;51.064;7.014;2022-12-07T02:53:59;21.38;;;12.52;;
62058;SDS011;48017;51.064;7.014;2022-12-07T02:56:34;22.88;;;12.15;;
62058;SDS011;48017;51.064;7.014;2022-12-07T03:01:49;22.38;;;13.20;;
62058;SDS011;48017;51.064;7.014;2022-12-07T03:06:49;21.42;;;12.65;;
62058;SDS011;48017;51.064;7.014;2022-12-07T03:09:20;23.98;;;12.80;;
62058;SDS011;48017;51.064;7.014;2022-12-07T03:11:50;22.88;;;12.38;;
62058;SDS011;48017;51.064;7.014;2022-12-07T03:14:23;22.70;;;12.30;;
62058;SDS011;48017;51.064;7.014;2022-12-07T03:16:53;20.88;;;12.32;;
62058;SDS011;48017;51.064;7.014;2022-12-07T03:19:22;20.60;;;12.82;;
62058;SDS011;48017;51.064;7.014;2022-12-07T03:22:02;23.27;;;12.98;;
62058;SDS011;48017;51.064;7.014;2022-12-07T03:24:30;20.02;;;12.32;;
62058;SDS011;48017;51.064;7.014;2022-12-07T03:27:05;20.25;;;12.23;;
62058;SDS011;48017;51.064;7.014;2022-12-07T03:29:34;17.38;;;11.85;;
62058;SDS011;48017;51.064;7.014;2022-12-07T03:32:08;19.85;;;12.35;;
62058;SDS011;48017;51.064;7.014;2022-12-07T03:34:40;22.42;;;13.27;;
62058;SDS011;48017;51.064;7.014;2022-12-07T03:37:08;20.00;;;12.38;;
62058;SDS011;48017;51.064;7.014;2022-12-07T03:39:51;22.75;;;13.77;;
62058;SDS011;48017;51.064;7.014;2022-12-07T03:42:22;26.63;;;13.98;;
62058;SDS011;48017;51.064;7.014;2022-12-07T03:44:47;23.58;;;13.70;;
62058;SDS011;48017;51.064;7.014;2022-12-07T03:47:33;20.70;;;13.85;;
62058;SDS011;48017;51.064;7.014;2022-12-07T03:50:04;19.35;;;12.15;;
62058;SDS011;48017;51.064;7.014;2022-12-07T03:55:08;21.80;;;13.13;;
62058;SDS011;48017;51.064;7.014;2022-12-07T03:57:36;18.63;;;12.90;;
62058;SDS011;48017;51.064;7.014;2022-12-07T04:00:03;29.58;;;13.52;;
62058;SDS011;48017;51.064;7.014;2022-12-07T04:02:29;18.48;;;12.55;;
62058;SDS011;48017;51.064;7.014;2022-12-07T04:04:54;25.20;;;13.00;;
62058;SDS011;48017;51.064;7.014;2022-12-07T04:07:20;21.48;;;13.02;;
62058;SDS011;48017;51.064;7.014;2022-12-07T04:09:45;21.15;;;12.85;;
62058;SDS011;48017;51.064;7.014;2022-12-07T04:12:11;22.70;;;13.63;;
62058;SDS011;48017;51.064;7.014;2022-12-07T04:14:36;19.48;;;12.27;;
62058;SDS011;48017;51.064;7.014;2022-12-07T04:17:01;22.13;;;13.75;;
62058;SDS011;48017;51.064;7.014;2022-12-07T04:19:27;22.48;;;13.93;;
62058;SDS011;48017;51.064;7.014;2022-12-07T04:21:53;22.67;;;12.40;;
62058;SDS011;48017;51.064;7.014;2022-12-07T04:24:19;22.55;;;13.98;;
62058;SDS011;48017;51.064;7.014;2022-12-07T04:26:44;21.38;;;13.73;;
62058;SDS011;48017;51.064;7.014;2022-12-07T04:29:09;19.65;;;12.40;;
62058;SDS011;48017;51.064;7.014;2022-12-07T04:31:35;25.85;;;13.88;;
62058;SDS011;48017;51.064;7.014;2022-12-07T04:34:00;22.75;;;13.88;;
62058;SDS011;48017;51.064;7.014;2022-12-07T04:36:25;37.17;;;16.45;;
62058;SDS011;48017;51.064;7.014;2022-12-07T04:38:52;22.40;;;13.32;;
62058;SDS011;48017;51.064;7.014;2022-12-07T04:41:18;24.58;;;13.15;;
62058;SDS011;48017;51.064;7.014;2022-12-07T04:43:43;19.50;;;12.32;;
62058;SDS011;48017;51.064;7.014;2022-12-07T04:46:08;18.85;;;13.23;;
62058;SDS011;48017;51.064;7.014;2022-12-07T04:48:33;23.30;;;12.60;;
62058;SDS011;48017;51.064;7.014;2022-12-07T04:50:59;19.42;;;12.57;;
62058;SDS011;48017;51.064;7.014;2022-12-07T04:53:24;18.58;;;12.05;;
62058;SDS011;48017;51.064;7.014;2022-12-07T04:55:49;21.00;;;11.65;;
62058;SDS011;48017;51.064;7.014;2022-12-07T04:58:14;18.50;;;11.77;;
62058;SDS011;48017;51.064;7.014;2022-12-07T05:00:40;18.58;;;11.57;;
62058;SDS011;48017;51.064;7.014;2022-12-07T05:03:05;19.38;;;10.82;;
62058;SDS011;48017;51.064;7.014;2022-12-07T05:05:30;20.80;;;13.23;;
62058;SDS011;48017;51.064;7.014;2022-12-07T05:07:56;16.90;;;11.43;;
62058;SDS011;48017;51.064;7.014;2022-12-07T05:10:21;17.52;;;11.73;;
62058;SDS011;48017;51.064;7.014;2022-12-07T05:12:46;15.65;;;11.13;;
62058;SDS011;48017;51.064;7.014;2022-12-07T05:15:12;17.45;;;11.15;;
62058;SDS011;48017;51.064;7.014;2022-12-07T05:17:37;19.30;;;11.35;;
62058;SDS011;48017;51.064;7.014;2022-12-07T05:20:03;18.88;;;11.05;;
62058;SDS011;48017;51.064;7.014;2022-12-07T05:22:29;21.08;;;11.18;;
62058;SDS011;48017;51.064;7.014;2022-12-07T05:24:54;17.63;;;10.90;;
62058;SDS011;48017;51.064;7.014;2022-12-07T05:27:20;22.20;;;12.57;;
62058;SDS011;48017;51.064;7.014;2022-12-07T05:29:45;20.00;;;12.43;;
62058;SDS011;48017;51.064;7.014;2022-12-07T05:32:10;19.55;;;12.00;;
62058;SDS011;48017;51.064;7.014;2022-12-07T05:34:35;17.98;;;10.18;;
62058;SDS011;48017;51.064;7.014;2022-12-07T05:37:01;20.90;;;12.13;;
62058;SDS011;48017;51.064;7.014;2022-12-07T05:39:26;26.02;;;12.55;;
62058;SDS011;48017;51.064;7.014;2022-12-07T05:41:51;22.92;;;14.00;;
62058;SDS011;48017;51.064;7.014;2022-12-07T05:44:35;17.95;;;12.15;;
62058;SDS011;48017;51.064;7.014;2022-12-07T05:47:00;19.05;;;10.88;;
62058;SDS011;48017;51.064;7.014;2022-12-07T05:49:25;15.52;;;10.73;;
62058;SDS011;48017;51.064;7.014;2022-12-07T05:51:50;19.52;;;11.93;;
62058;SDS011;48017;51.064;7.014;2022-12-07T05:54:16;17.17;;;11.40;;
62058;SDS011;48017;51.064;7.014;2022-12-07T05:56:41;17.05;;;10.80;;
62058;SDS011;48017;51.064;7.014;2022-12-07T05:59:07;15.40;;;10.63;;
62058;SDS011;48017;51.064;7.014;2022-12-07T06:01:52;20.02;;;11.27;;
62058;SDS011;48017;51.064;7.014;2022-12-07T06:04:17;16.75;;;10.82;;
62058;SDS011;48017;51.064;7.014;2022-12-07T06:06:42;19.02;;;10.30;;
62058;SDS011;48017;51.064;7.014;2022-12-07T06:09:08;17.10;;;10.38;;
62058;SDS011;48017;51.064;7.014;2022-12-07T06:11:33;21.50;;;10.88;;
62058;SDS011;48017;51.064;7.014;2022-12-07T06:14:17;18.95;;;10.98;;
62058;SDS011;48017;51.064;7.014;2022-12-07T06:16:42;14.65;;;9.80;;
62058;SDS011;48017;51.064;7.014;2022-12-07T06:19:07;14.75;;;10.05;;
62058;SDS011;48017;51.064;7.014;2022-12-07T06:21:33;13.10;;;8.60;;
62058;SDS011;48017;51.064;7.014;2022-12-07T06:23:58;17.40;;;9.80;;
62058;SDS011;48017;51.064;7.014;2022-12-07T06:26:23;14.10;;;9.90;;
62058;SDS011;48017;51.064;7.014;2022-12-07T06:28:48;15.48;;;9.35;;
62058;SDS011;48017;51.064;7.014;2022-12-07T06:31:14;15.90;;;8.57;;
62058;SDS011;48017;51.064;7.014;2022-12-07T06:33:39;15.43;;;9.55;;
62058;SDS011;48017;51.064;7.014;2022-12-07T06:36:04;14.02;;;9.90;;
62058;SDS011;48017;51.064;7.014;2022-12-07T06:38:30;11.88;;;8.60;;
62058;SDS011;48017;51.064;7.014;2022-12-07T06:40:55;14.48;;;8.93;;
62058;SDS011;48017;51.064;7.014;2022-12-07T06:43:20;13.60;;;9.30;;
62058;SDS011;48017;51.064;7.014;2022-12-07T06:45:45;15.60;;;9.73;;
62058;SDS011;48017;51.064;7.014;2022-12-07T06:48:11;13.98;;;9.55;;
62058;SDS011;48017;51.064;7.014;2022-12-07T06:50:36;15.48;;;9.20;;
62058;SDS011;48017;51.064;7.014;2022-12-07T06:53:01;13.05;;;9.23;;
62058;SDS011;48017;51.064;7.014;2022-12-07T06:55:26;14.20;;;9.40;;
62058;SDS011;48017;51.064;7.014;2022-12-07T06:57:51;14.98;;;9.10;;
62058;SDS011;48017;51.064;7.014;2022-12-07T07:00:17;15.23;;;9.27;;
62058;SDS011;48017;51.064;7.014;2022-12-07T07:02:42;17.67;;;9.02;;
62058;SDS011;48017;51.064;7.014;2022-12-07T07:05:07;14.88;;;9.50;;
62058;SDS011;48017;51.064;7.014;2022-12-07T07:07:33;16.58;;;9.40;;
62058;SDS011;48017;51.064;7.014;2022-12-07T07:09:58;16.27;;;8.95;;
62058;SDS011;48017;51.064;7.014;2022-12-07T07:12:23;18.20;;;9.48;;
62058;SDS011;48017;51.064;7.014;2022-12-07T07:14:48;13.25;;;9.00;;
62058;SDS011;48017;51.064;7.014;2022-12-07T07:17:13;15.93;;;8.33;;
62058;SDS011;48017;51.064;7.014;2022-12-07T07:19:39;16.58;;;9.48;;
62058;SDS011;48017;51.064;7.014;2022-12-07T07:22:04;16.60;;;10.52;;
62058;SDS011;48017;51.064;7.014;2022-12-07T07:24:29;13.32;;;8.75;;
62058;SDS011;48017;51.064;7.014;2022-12-07T07:26:55;15.85;;;10.30;;
62058;SDS011;48017;51.064;7.014;2022-12-07T07:29:20;16.70;;;9.85;;
62058;SDS011;48017;51.064;7.014;2022-12-07T07:31:45;16.38;;;9.90;;
62058;SDS011;48017;51.064;7.014;2022-12-07T07:34:10;13.27;;;9.35;;
62058;SDS011;48017;51.064;7.014;2022-12-07T07:36:35;13.93;;;9.35;;
62058;SDS011;48017;51.064;7.014;2022-12-07T07:39:01;15.80;;;9.60;;
62058;SDS011;48017;51.064;7.014;2022-12-07T07:41:26;17.30;;;10.68;;
62058;SDS011;48017;51.064;7.014;2022-12-07T07:43:51;16.17;;;10.68;;
62058;SDS011;48017;51.064;7.014;2022-12-07T07:46:16;17.00;;;9.65;;
62058;SDS011;48017;51.064;7.014;2022-12-07T07:48:42;16.40;;;10.05;;
62058;SDS011;48017;51.064;7.014;2022-12-07T07:51:07;15.00;;;9.20;;
62058;SDS011;48017;51.064;7.014;2022-12-07T07:53:33;13.02;;;8.68;;
62058;SDS011;48017;51.064;7.014;2022-12-07T07:55:58;16.42;;;9.68;;
62058;SDS011;48017;51.064;7.014;2022-12-07T07:58:24;13.27;;;9.18;;
62058;SDS011;48017;51.064;7.014;2022-12-07T08:00:49;15.85;;;10.05;;
62058;SDS011;48017;51.064;7.014;2022-12-07T08:03:14;15.45;;;9.85;;
62058;SDS011;48017;51.064;7.014;2022-12-07T08:05:40;15.82;;;9.32;;
62058;SDS011;48017;51.064;7.014;2022-12-07T08:08:05;14.07;;;9.23;;
62058;SDS011;48017;51.064;7.014;2022-12-07T08:10:31;13.80;;;9.35;;
62058;SDS011;48017;51.064;7.014;2022-12-07T08:12:57;15.00;;;9.18;;
62058;SDS011;48017;51.064;7.014;2022-12-07T08:15:44;16.80;;;8.77;;
62058;SDS011;48017;51.064;7.014;2022-12-07T08:18:10;12.20;;;9.30;;
62058;SDS011;48017;51.064;7.014;2022-12-07T08:20:36;11.93;;;8.32;;
62058;SDS011;48017;51.064;7.014;2022-12-07T08:23:02;14.80;;;9.35;;
62058;SDS011;48017;51.064;7.014;2022-12-07T08:25:28;13.55;;;8.82;;
62058;SDS011;48017;51.064;7.014;2022-12-07T08:27:53;15.02;;;8.60;;
62058;SDS011;48017;51.064;7.014;2022-12-07T08:30:19;13.77;;;8.10;;
62058;SDS011;48017;51.064;7.014;2022-12-07T08:32:45;13.90;;;8.80;;
62058;SDS011;48017;51.064;7.014;2022-12-07T08:35:10;13.15;;;8.35;;
62058;SDS011;48017;51.064;7.014;2022-12-07T08:37:36;14.77;;;9.75;;
62058;SDS011;48017;51.064;7.014;2022-12-07T08:40:01;14.90;;;8.98;;
62058;SDS011;48017;51.064;7.014;2022-12-07T08:42:27;14.07;;;8.15;;
62058;SDS011;48017;51.064;7.014;2022-12-07T08:44:55;15.05;;;10.18;;
62058;SDS011;48017;51.064;7.014;2022-12-07T08:47:20;15.85;;;8.88;;
62058;SDS011;48017;51.064;7.014;2022-12-07T08:49:46;17.55;;;8.43;;
62058;SDS011;48017;51.064;7.014;2022-12-07T08:52:12;12.20;;;8.30;;
62058;SDS011;48017;51.064;7.014;2022-12-07T08:54:37;13.98;;;8.10;;
62058;SDS011;48017;51.064;7.014;2022-12-07T08:57:04;11.98;;;7.72;;
62058;SDS011;48017;51.064;7.014;2022-12-07T08:59:29;11.90;;;8.07;;
62058;SDS011;48017;51.064;7.014;2022-12-07T09:01:55;13.82;;;8.20;;
62058;SDS011;48017;51.064;7.014;2022-12-07T09:04:20;10.05;;;7.15;;
62058;SDS011;48017;51.064;7.014;2022-12-07T09:06:46;15.95;;;8.07;;
62058;SDS011;48017;51.064;7.014;2022-12-07T09:09:11;11.75;;;7.78;;
62058;SDS011;48017;51.064;7.014;2022-12-07T09:11:37;15.25;;;7.80;;
62058;SDS011;48017;51.064;7.014;2022-12-07T09:14:02;16.23;;;8.10;;
62058;SDS011;48017;51.064;7.014;2022-12-07T09:16:27;16.95;;;8.05;;
62058;SDS011;48017;51.064;7.014;2022-12-07T09:18:53;13.40;;;8.20;;
62058;SDS011;48017;51.064;7.014;2022-12-07T09:21:18;14.00;;;8.80;;
62058;SDS011;48017;51.064;7.014;2022-12-07T09:23:43;14.45;;;8.35;;
62058;SDS011;48017;51.064;7.014;2022-12-07T09:26:08;10.65;;;7.57;;
62058;SDS011;48017;51.064;7.014;2022-12-07T09:28:34;12.52;;;7.88;;
62058;SDS011;48017;51.064;7.014;2022-12-07T09:30:59;11.77;;;7.70;;
62058;SDS011;48017;51.064;7.014;2022-12-07T09:33:25;13.07;;;8.00;;
62058;SDS011;48017;51.064;7.014;2022-12-07T09:35:50;13.73;;;7.65;;
62058;SDS011;48017;51.064;7.014;2022-12-07T09:38:16;12.60;;;7.03;;
62058;SDS011;48017;51.064;7.014;2022-12-07T09:40:42;18.77;;;7.95;;
62058;SDS011;48017;51.064;7.014;2022-12-07T09:43:21;18.23;;;7.47;;
62058;SDS011;48017;51.064;7.014;2022-12-07T09:45:48;12.68;;;7.53;;
62058;SDS011;48017;51.064;7.014;2022-12-07T09:48:19;12.13;;;7.43;;
62058;SDS011;48017;51.064;7.014;2022-12-07T09:50:46;11.85;;;7.53;;
62058;SDS011;48017;51.064;7.014;2022-12-07T09:53:17;11.65;;;7.57;;
62058;SDS011;48017;51.064;7.014;2022-12-07T09:55:43;9.93;;;7.30;;
62058;SDS011;48017;51.064;7.014;2022-12-07T09:58:17;11.90;;;7.32;;
62058;SDS011;48017;51.064;7.014;2022-12-07T10:00:44;11.18;;;7.32;;
62058;SDS011;48017;51.064;7.014;2022-12-07T10:03:10;10.45;;;7.35;;
62058;SDS011;48017;51.064;7.014;2022-12-07T10:05:37;10.15;;;7.07;;
62058;SDS011;48017;51.064;7.014;2022-12-07T10:08:04;11.50;;;7.38;;
62058;SDS011;48017;51.064;7.014;2022-12-07T10:10:30;11.32;;;6.78;;
62058;SDS011;48017;51.064;7.014;2022-12-07T10:15:21;10.18;;;6.85;;
62058;SDS011;48017;51.064;7.014;2022-12-07T10:17:50;11.48;;;7.15;;
62058;SDS011;48017;51.064;7.014;2022-12-07T10:20:23;16.67;;;7.88;;
62058;SDS011;48017;51.064;7.014;2022-12-07T10:23:03;13.57;;;6.85;;
62058;SDS011;48017;51.064;7.014;2022-12-07T10:25:32;15.02;;;7.30;;
62058;SDS011;48017;51.064;7.014;2022-12-07T10:30:32;11.88;;;6.97;;
62058;SDS011;48017;51.064;7.014;2022-12-07T10:32:58;12.90;;;6.90;;
62058;SDS011;48017;51.064;7.014;2022-12-07T10:35:24;13.38;;;7.47;;
62058;SDS011;48017;51.064;7.014;2022-12-07T10:37:50;11.45;;;6.80;;
62058;SDS011;48017;51.064;7.014;2022-12-07T10:40:23;9.80;;;6.50;;
62058;SDS011;48017;51.064;7.014;2022-12-07T10:42:59;9.77;;;6.00;;
62058;SDS011;48017;51.064;7.014;2022-12-07T10:45:25;11.85;;;6.55;;
62058;SDS011;48017;51.064;7.014;2022-12-07T10:47:51;9.98;;;6.18;;
62058;SDS011;48017;51.064;7.014;2022-12-07T10:52:54;10.98;;;6.10;;
62058;SDS011;48017;51.064;7.014;2022-12-07T10:58:19;12.95;;;5.55;;
62058;SDS011;48017;51.064;7.014;2022-12-07T11:00:58;9.52;;;5.68;;
62058;SDS011;48017;51.064;7.014;2022-12-07T11:06:33;10.63;;;4.95;;
62058;SDS011;48017;51.064;7.014;2022-12-07T11:14:16;7.57;;;4.38;;
62058;SDS011;48017;51.064;7.014;2022-12-07T11:21:55;9.65;;;5.50;;
62058;SDS011;48017;51.064;7.014;2022-12-07T11:26:50;8.05;;;4.97;;
62058;SDS011;48017;51.064;7.014;2022-12-07T11:34:15;7.28;;;4.10;;
62058;SDS011;48017;51.064;7.014;2022-12-07T11:36:46;9.90;;;4.78;;
62058;SDS011;48017;51.064;7.014;2022-12-07T11:39:23;11.55;;;5.30;;
62058;SDS011;48017;51.064;7.014;2022-12-07T11:41:51;9.52;;;4.82;;
62058;SDS011;48017;51.064;7.014;2022-12-07T11:46:45;9.50;;;4.15;;
62058;SDS011;48017;51.064;7.014;2022-12-07T11:52:09;7.93;;;4.45;;
62058;SDS011;48017;51.064;7.014;2022-12-07T11:54:40;8.20;;;4.57;;
62058;SDS011;48017;51.064;7.014;2022-12-07T11:59:39;13.90;;;4.78;;
62058;SDS011;48017;51.064;7.014;2022-12-07T12:02:12;8.80;;;4.68;;
62058;SDS011;48017;51.064;7.014;2022-12-07T12:07:23;11.38;;;4.85;;
62058;SDS011;48017;51.064;7.014;2022-12-07T12:09:58;8.50;;;4.63;;
62058;SDS011;48017;51.064;7.014;2022-12-07T12:12:40;8.93;;;4.70;;
62058;SDS011;48017;51.064;7.014;2022-12-07T12:15:15;8.55;;;4.55;;
62058;SDS011;48017;51.064;7.014;2022-12-07T12:20:31;8.10;;;3.75;;
62058;SDS011;48017;51.064;7.014;2022-12-07T12:25:29;6.78;;;3.90;;
62058;SDS011;48017;51.064;7.014;2022-12-07T12:27:57;6.90;;;4.45;;
62058;SDS011;48017;51.064;7.014;2022-12-07T12:30:33;11.77;;;4.65;;
62058;SDS011;48017;51.064;7.014;2022-12-07T12:33:32;6.53;;;3.88;;
62058;SDS011;48017;51.064;7.014;2022-12-07T12:36:42;8.10;;;3.90;;
62058;SDS011;48017;51.064;7.014;2022-12-07T12:46:48;8.88;;;4.57;;
62058;SDS011;48017;51.064;7.014;2022-12-07T12:51:42;12.48;;;4.53;;
62058;SDS011;48017;51.064;7.014;2022-12-07T12:54:12;5.63;;;3.63;;
62058;SDS011;48017;51.064;7.014;2022-12-07T13:01:48;9.63;;;3.35;;
62058;SDS011;48017;51.064;7.014;2022-12-07T13:04:24;12.10;;;3.95;;
62058;SDS011;48017;51.064;7.014;2022-12-07T13:06:50;9.07;;;3.15;;
62058;SDS011;48017;51.064;7.014;2022-12-07T13:09:29;8.55;;;3.78;;
62058;SDS011;48017;51.064;7.014;2022-12-07T13:11:58;8.40;;;3.80;;
62058;SDS011;48017;51.064;7.014;2022-12-07T13:16:49;9.30;;;3.35;;
62058;SDS011;48017;51.064;7.014;2022-12-07T13:21:59;6.63;;;3.75;;
62058;SDS011;48017;51.064;7.014;2022-12-07T13:24:24;6.25;;;3.17;;
62058;SDS011;48017;51.064;7.014;2022-12-07T13:26:51;9.35;;;3.90;;
62058;SDS011;48017;51.064;7.014;2022-12-07T13:29:20;7.30;;;3.35;;
62058;SDS011;48017;51.064;7.014;2022-12-07T13:31:47;7.75;;;3.15;;
62058;SDS011;48017;51.064;7.014;2022-12-07T13:36:39;7.78;;;3.25;;
62058;SDS011;48017;51.064;7.014;2022-12-07T13:39:16;9.52;;;3.88;;
62058;SDS011;48017;51.064;7.014;2022-12-07T13:41:42;5.75;;;3.72;;
62058;SDS011;48017;51.064;7.014;2022-12-07T13:44:11;6.53;;;3.78;;
62058;SDS011;48017;51.064;7.014;2022-12-07T13:46:57;10.60;;;4.18;;
62058;SDS011;48017;51.064;7.014;2022-12-07T13:49:28;8.30;;;3.80;;
62058;SDS011;48017;51.064;7.014;2022-12-07T13:51:55;8.10;;;3.92;;
62058;SDS011;48017;51.064;7.014;2022-12-07T13:54:31;8.00;;;4.15;;
62058;SDS011;48017;51.064;7.014;2022-12-07T13:56:56;7.45;;;4.00;;
62058;SDS011;48017;51.064;7.014;2022-12-07T13:59:23;7.43;;;3.90;;
62058;SDS011;48017;51.064;7.014;2022-12-07T14:01:49;8.13;;;4.25;;
62058;SDS011;48017;51.064;7.014;2022-12-07T14:06:52;6.95;;;4.07;;
62058;SDS011;48017;51.064;7.014;2022-12-07T14:09:19;9.90;;;4.25;;
62058;SDS011;48017;51.064;7.014;2022-12-07T14:11:45;6.50;;;3.83;;
62058;SDS011;48017;51.064;7.014;2022-12-07T14:14:12;6.30;;;3.78;;
62058;SDS011;48017;51.064;7.014;2022-12-07T14:16:38;8.63;;;3.55;;
62058;SDS011;48017;51.064;7.014;2022-12-07T14:19:05;6.25;;;3.80;;
62058;SDS011;48017;51.064;7.014;2022-12-07T14:21:31;12.02;;;4.47;;
62058;SDS011;48017;51.064;7.014;2022-12-07T14:24:16;6.88;;;3.33;;
62058;SDS011;48017;51.064;7.014;2022-12-07T14:26:46;7.63;;;3.92;;
62058;SDS011;48017;51.064;7.014;2022-12-07T14:29:19;6.63;;;3.70;;
62058;SDS011;48017;51.064;7.014;2022-12-07T14:31:44;8.10;;;4.20;;
62058;SDS011;48017;51.064;7.014;2022-12-07T14:34:11;9.05;;;4.03;;
62058;SDS011;48017;51.064;7.014;2022-12-07T14:36:37;7.50;;;4.35;;
62058;SDS011;48017;51.064;7.014;2022-12-07T14:39:02;7.13;;;3.75;;
62058;SDS011;48017;51.064;7.014;2022-12-07T14:41:27;6.65;;;3.83;;
62058;SDS011;48017;51.064;7.014;2022-12-07T14:44:12;9.55;;;3.65;;
62058;SDS011;48017;51.064;7.014;2022-12-07T14:46:37;6.20;;;3.40;;
62058;SDS011;48017;51.064;7.014;2022-12-07T14:49:02;9.63;;;3.70;;
62058;SDS011;48017;51.064;7.014;2022-12-07T14:51:28;6.72;;;3.45;;
62058;SDS011;48017;51.064;7.014;2022-12-07T14:53:53;6.70;;;3.40;;
62058;SDS011;48017;51.064;7.014;2022-12-07T14:56:18;8.60;;;3.40;;
62058;SDS011;48017;51.064;7.014;2022-12-07T14:58:43;6.75;;;3.17;;
62058;SDS011;48017;51.064;7.014;2022-12-07T15:01:09;6.32;;;3.28;;
62058;SDS011;48017;51.064;7.014;2022-12-07T15:03:34;10.48;;;3.78;;
62058;SDS011;48017;51.064;7.014;2022-12-07T15:06:00;5.75;;;3.28;;
62058;SDS011;48017;51.064;7.014;2022-12-07T15:08:25;6.85;;;3.90;;
62058;SDS011;48017;51.064;7.014;2022-12-07T15:10:50;7.13;;;3.65;;
62058;SDS011;48017;51.064;7.014;2022-12-07T15:13:16;9.27;;;3.53;;
62058;SDS011;48017;51.064;7.014;2022-12-07T15:15:59;6.78;;;3.80;;
62058;SDS011;48017;51.064;7.014;2022-12-07T15:18:25;8.17;;;3.83;;
62058;SDS011;48017;51.064;7.014;2022-12-07T15:20:50;8.57;;;3.50;;
62058;SDS011;48017;51.064;7.014;2022-12-07T15:23:16;9.10;;;4.00;;
62058;SDS011;48017;51.064;7.014;2022-12-07T15:25:42;8.13;;;3.90;;
62058;SDS011;48017;51.064;7.014;2022-12-07T15:28:07;9.60;;;4.13;;
62058;SDS011;48017;51.064;7.014;2022-12-07T15:30:32;8.73;;;4.05;;
62058;SDS011;48017;51.064;7.014;2022-12-07T15:32:58;8.70;;;4.72;;
62058;SDS011;48017;51.064;7.014;2022-12-07T15:35:23;8.27;;;4.18;;
62058;SDS011;48017;51.064;7.014;2022-12-07T15:37:48;10.80;;;4.68;;
62058;SDS011;48017;51.064;7.014;2022-12-07T15:40:13;6.35;;;4.20;;
62058;SDS011;48017;51.064;7.014;2022-12-07T15:42:39;5.85;;;3.25;;
62058;SDS011;48017;51.064;7.014;2022-12-07T15:45:04;7.68;;;3.53;;
62058;SDS011;48017;51.064;7.014;2022-12-07T15:47:31;5.45;;;3.05;;
62058;SDS011;48017;51.064;7.014;2022-12-07T15:49:57;7.20;;;3.10;;
62058;SDS011;48017;51.064;7.014;2022-12-07T15:52:22;5.55;;;3.15;;
62058;SDS011;48017;51.064;7.014;2022-12-07T15:54:47;6.53;;;3.05;;
62058;SDS011;48017;51.064;7.014;2022-12-07T15:57:13;7.43;;;2.80;;
62058;SDS011;48017;51.064;7.014;2022-12-07T15:59:38;7.00;;;2.63;;
62058;SDS011;48017;51.064;7.014;2022-12-07T16:02:03;4.90;;;2.83;;
62058;SDS011;48017;51.064;7.014;2022-12-07T16:04:29;5.93;;;2.75;;
62058;SDS011;48017;51.064;7.014;2022-12-07T16:06:54;4.43;;;2.90;;
62058;SDS011;48017;51.064;7.014;2022-12-07T16:09:20;4.45;;;2.60;;
62058;SDS011;48017;51.064;7.014;2022-12-07T16:11:45;6.57;;;3.15;;